Observations for CARDIFF-WALES ARPT, United Kingdom (EGFF)

EGFF 242020Z 28013KT 9999 VCSH FEW007 BKN016 09/08 Q1009
EGFF 241950Z 27015KT 9999 VCSH SCT008 BKN015 09/09 Q1009
EGFF 241920Z 27019KT 7000 -RA FEW005 SCT008 BKN015 10/10 Q1008  
EGFF 241850Z 26015KT 7000 -RA FEW006 SCT011 BKN015 11/11 Q1008 RERA 
EGFF 241820Z 25013KT 5000 -SHRA FEW004TCU BKN007 OVC012 11/11 Q1008 RERA REDZ   
EGFF 241750Z 25012KT 4100 RADZ BKN009TCU 11/11 Q1008
EGFF 241720Z AUTO 24010KT 9000 -RA BKN017/// OVC022/// //////TCU 11/11 Q1008
EGFF 241650Z 24011KT 6000 -SHRA BKN013CB OVC018 11/11 Q1009 
EGFF 241620Z 25013KT 6000 -SHRA BKN012TCU OVC018 12/11 Q1009 RESHRA 
EGFF 241550Z AUTO 25013KT 9999 BKN014 OVC020 12/11 Q1009
EGFF 241520Z 25012KT 9999 5000NW -SHRA SCT013 BKN016 12/12 Q1010
EGFF 241450Z 25013KT 9999 5000SE VCSH SCT013 BKN019 12/12 Q1010 
EGFF 241420Z 25013KT 9999 FEW004 SCT014 OVC020 12/12 Q1011 REDZ 
EGFF 241350Z 26011KT 4600 DZ FEW002 BKN013 OVC022 12/12 Q1011 REDZ  
EGFF 241320Z 26009KT 4700 -DZ BR FEW008 BKN015 OVC022 12/12 Q1011   
EGFF 241250Z 22004KT 9999 6000W SCT016 BKN020 12/11 Q1012   
EGFF 241220Z 19006KT 9999 FEW014 BKN016 12/11 Q1012 
EGFF 241150Z 16005KT 130V190 9999 SCT014 BKN018 12/10 Q1013 
EGFF 241120Z 14004KT 9999 BKN020 OVC025 11/10 Q1013 
EGFF 241050Z 12004KT 4500 BR BKN020 OVC030 12/11 Q1014  
EGFF 241020Z VRB02KT 9999 8000W VCSH FEW010 BKN034 11/10 Q1014  
EGFF 240950Z AUTO VRB03KT 9999 FEW007 OVC040 11/10 Q1015
EGFF 240920Z 23005KT 180V290 9999 FEW011 OVC046 11/10 Q1015 
EGFF 240850Z 25006KT 9999 FEW006 SCT008 11/10 Q1015 
EGFF 240820Z 26004KT 220V300 9999 BKN006 BKN010 11/10 Q1015 
EGFF 240750Z AUTO 28009KT 9999 OVC004 10/10 Q1016   
EGFF 240720Z 27009KT 5000 BR OVC002 10/10 Q1016 
EGFF 240650Z AUTO 27010KT 6000 BKN002 OVC006 10/10 Q1016
EGFF 240620Z AUTO 27011KT 9999 BKN004 10/10 Q1016   
EGFF 240550Z AUTO 28012KT 9999 BKN003 10/10 Q1016   
EGFF 240520Z AUTO 27013KT 9999 BKN003 OVC012 10/10 Q1015
EGFF 240450Z AUTO 27011KT 9999 BKN004 OVC012 10/09 Q1015
EGFF 240420Z AUTO 28010KT 9999 OVC003 10/09 Q1015   
EGFF 240350Z AUTO 28012KT 9999 BKN003 OVC006 10/09 Q1016
EGFF 240320Z AUTO 28011KT 9999 BKN005 OVC010 10/09 Q1016
EGFF 240250Z AUTO 27014KT 9999 BKN004 OVC017 10/10 Q1016
EGFF 240220Z AUTO 27013KT 9999 OVC005 10/09 Q1016   
EGFF 240150Z AUTO 27016KT 9999 OVC007 10/09 Q1015   
EGFF 240120Z AUTO 26018KT 9999 OVC007 10/10 Q1016   
EGFF 240050Z AUTO 27018G29KT 9999 FEW005 OVC011 10/10 Q1016 
EGFF 240020Z AUTO 27016G27KT 9999 BKN004 OVC014 10/10 Q1016 
EGFF 232350Z AUTO 27015KT 9999 OVC003 10/10 Q1016   
EGFF 232320Z AUTO 27014KT 9999 BKN003 OVC006 10/10 Q1016
EGFF 232250Z AUTO 27014KT 9999 OVC003 10/10 Q1016   
EGFF 232220Z AUTO 26012KT 9999 OVC004 10/10 Q1016   
EGFF 232150Z AUTO 26013KT 9999 OVC005 10/10 Q1016   
EGFF 232120Z AUTO 26011KT 9999 OVC005 10/10 Q1016   
EGFF 232050Z AUTO 26012KT 9999 OVC006 10/10 Q1016 REDZ  
EGFF 232020Z 26012KT 6000 DZ SCT008 BKN013 10/10 Q1016  
EGFF 231950Z 25010KT 6000 VCSH SCT009 BKN014 10/09 Q1016 RERA